Time;durP1;ratioP1;P1;durP2;ratioP2;P2;SDS_P1;SDS_P2;PMS_P1;PMS_P2;Temp;Humidity;BMP_temperature;BMP_pressure;BME280_temperature;BME280_humidity;BME280_pressure;Samples;Min_cycle;Max_cycle;Signal;HPM_P1;HPM_P2
2022/05/16 00:00:40;;;;;;;6.62;1.12;;;;;;;8.71;100.00;99656.34;1685301;84;21088;-58
2022/05/16 00:03:07;;;;;;;4.65;1.40;;;;;;;8.66;100.00;99652.23;1723895;82;21482;-59
2022/05/16 00:05:34;;;;;;;4.97;1.25;;;;;;;8.66;100.00;99654.41;1718266;82;21127;-59
2022/05/16 00:08:03;;;;;;;6.37;1.25;;;;;;;8.72;100.00;99651.17;1722482;82;21518;-59
2022/05/16 00:10:30;;;;;;;3.58;1.10;;;;;;;8.71;100.00;99657.70;1723394;82;21672;-58
2022/05/16 00:12:59;;;;;;;3.02;1.10;;;;;;;8.66;100.00;99654.95;1714528;82;21092;-58
2022/05/16 00:15:26;;;;;;;3.08;1.10;;;;;;;8.62;100.00;99653.83;1715688;82;21581;-58
2022/05/16 00:17:53;;;;;;;3.42;0.80;;;;;;;8.61;100.00;99652.21;1715825;82;21103;-57
2022/05/16 00:20:20;;;;;;;6.05;1.30;;;;;;;8.63;100.00;99659.01;1713143;82;21069;-60
2022/05/16 00:22:48;;;;;;;7.78;1.12;;;;;;;8.59;100.00;99657.89;1700155;83;21134;-58
2022/05/16 00:25:17;;;;;;;2.42;1.00;;;;;;;8.54;100.00;99653.77;1716913;82;21063;-58
2022/05/16 00:27:44;;;;;;;4.58;1.10;;;;;;;8.49;100.00;99653.75;1715454;82;21051;-58
2022/05/16 00:30:15;;;;;;;3.02;0.93;;;;;;;8.49;100.00;99661.35;1714519;82;21023;-60
2022/05/16 00:32:41;;;;;;;5.58;1.00;;;;;;;8.55;100.00;99659.48;1716471;82;21037;-57
2022/05/16 00:35:09;;;;;;;;;;;;;;;8.57;100.00;99658.70;1718327;82;21007;-58
2022/05/16 00:37:35;;;;;;;3.35;1.30;;;;;;;8.57;100.00;99660.59;1714498;82;20160;-58
2022/05/16 00:40:03;;;;;;;4.67;1.12;;;;;;;8.45;100.00;99656.70;1714741;82;21051;-60
2022/05/16 00:42:30;;;;;;;5.03;1.37;;;;;;;8.39;100.00;99653.67;1716960;81;21129;-58
2022/05/16 00:44:56;;;;;;;2.98;1.17;;;;;;;8.37;100.00;99654.45;1722608;81;21867;-59
2022/05/16 00:47:23;;;;;;;4.70;1.17;;;;;;;8.40;100.00;99653.40;1719364;82;21042;-58
2022/05/16 00:49:50;;;;;;;8.63;1.35;;;;;;;8.38;100.00;99658.28;1728706;82;21020;-58
2022/05/16 00:52:28;;;;;;;4.22;1.12;;;;;;;8.31;100.00;99658.21;1728581;81;21063;-59
2022/05/16 00:55:01;;;;;;;5.08;1.45;;;;;;;8.23;100.00;99656.76;1727089;81;20949;-59
2022/05/16 00:57:41;;;;;;;4.83;1.22;;;;;;;8.22;100.00;99657.83;1705971;82;20995;-59
2022/05/16 01:00:26;;;;;;;5.03;1.40;;;;;;;8.26;100.00;99661.66;1726185;82;21436;-58
2022/05/16 01:05:46;;;;;;;4.60;1.22;;;;;;;8.14;100.00;99658.31;1694656;83;21050;-58
2022/05/16 01:08:17;;;;;;;2.87;1.20;;;;;;;8.05;100.00;99658.48;1719744;81;21445;-58
2022/05/16 01:10:43;;;;;;;5.62;1.37;;;;;;;8.04;100.00;99656.05;1721176;81;21563;-58
2022/05/16 01:13:10;;;;;;;5.53;1.12;;;;;;;8.05;100.00;99654.42;1722463;82;21000;-58
2022/05/16 01:15:42;;;;;;;5.03;1.70;;;;;;;8.04;100.00;99654.70;1697752;82;21126;-59
2022/05/16 01:18:10;;;;;;;4.47;1.20;;;;;;;7.95;100.00;99656.51;1716559;83;21510;-59
2022/05/16 01:21:16;;;;;;;5.17;1.52;;;;;;;7.85;100.00;99649.64;1724202;82;21644;-58
2022/05/16 01:23:58;;;;;;;2.17;1.30;;;;;;;7.80;100.00;99652.81;1723944;81;21031;-58
2022/05/16 01:26:25;;;;;;;5.42;1.40;;;;;;;7.77;100.00;99645.20;1724044;81;21067;-58
2022/05/16 01:28:53;;;;;;;3.20;1.32;;;;;;;7.69;100.00;99649.72;1728325;82;21031;-58
2022/05/16 01:31:20;;;;;;;3.27;1.50;;;;;;;7.59;100.00;99650.43;1729976;82;21134;-60
2022/05/16 01:33:47;;;;;;;3.37;1.37;;;;;;;7.49;100.00;99652.50;1725797;81;21514;-58
2022/05/16 01:36:14;;;;;;;3.80;1.07;;;;;;;7.45;100.00;99655.95;1721112;81;21058;-58
2022/05/16 01:38:41;;;;;;;5.92;1.55;;;;;;;7.45;100.00;99651.89;1730145;81;21023;-58
2022/05/16 01:41:14;;;;;;;4.17;1.22;;;;;;;7.46;100.00;99656.25;1725386;81;21125;-58
2022/05/16 01:43:49;;;;;;;3.47;1.30;;;;;;;7.43;100.00;99652.70;1731835;81;21064;-58
2022/05/16 01:46:20;;;;;;;5.97;1.80;;;;;;;7.34;100.00;99650.95;1727115;81;21062;-58
2022/05/16 01:48:46;;;;;;;3.77;1.40;;;;;;;7.25;100.00;99644.36;1728482;81;21114;-59
2022/05/16 01:51:13;;;;;;;3.33;1.37;;;;;;;7.23;100.00;99647.84;1729149;81;21162;-59
2022/05/16 01:53:41;;;;;;;2.87;1.20;;;;;;;7.22;100.00;99646.75;1729894;81;21513;-58
2022/05/16 01:56:09;;;;;;;4.83;1.60;;;;;;;7.20;100.00;99651.05;1729433;81;21515;-58
2022/05/16 01:58:36;;;;;;;3.60;1.42;;;;;;;7.12;100.00;99646.63;1729238;82;21577;-59
2022/05/16 02:01:03;;;;;;;5.45;1.57;;;;;;;7.04;100.00;99643.83;1731093;81;21034;-58
2022/05/16 02:03:30;;;;;;;3.12;1.47;;;;;;;6.99;100.00;99643.74;1726129;82;21034;-58
2022/05/16 02:05:57;;;;;;;4.53;1.40;;;;;;;6.97;100.00;99646.72;1730846;81;21003;-58
2022/05/16 02:08:24;;;;;;;5.03;1.72;;;;;;;6.97;100.00;99649.95;1733960;82;21494;-58
2022/05/16 02:10:51;;;;;;;3.67;1.42;;;;;;;6.94;100.00;99644.48;1737035;82;21016;-58
2022/05/16 02:13:17;;;;;;;;;;;;;;;6.87;100.00;99639.79;1729913;81;21038;-58
2022/05/16 02:15:45;;;;;;;6.28;2.17;;;;;;;6.79;100.00;99649.71;1726793;81;20148;-58
2022/05/16 02:18:11;;;;;;;5.58;2.10;;;;;;;6.67;100.00;99648.16;1731531;82;21049;-58
2022/05/16 02:20:39;;;;;;;6.92;1.98;;;;;;;6.70;100.00;99646.30;1733351;81;21079;-58
2022/05/16 02:25:53;;;;;;;8.15;2.40;;;;;;;6.78;100.00;99649.41;1728450;81;21136;-58
2022/05/16 02:28:20;;;;;;;7.67;2.85;;;;;;;6.74;100.00;99650.16;1736108;82;21671;-60
2022/05/16 02:30:47;;;;;;;6.95;3.02;;;;;;;6.70;100.00;99652.53;1728947;81;21142;-58
2022/05/16 02:33:15;;;;;;;6.42;3.10;;;;;;;6.57;100.00;99635.84;1728933;81;21027;-58
2022/05/16 02:35:42;;;;;;;7.42;3.27;;;;;;;6.64;100.00;99652.71;1726258;81;21038;-57
2022/05/16 02:38:12;;;;;;;7.78;3.00;;;;;;;6.68;100.00;99654.69;1729419;82;21027;-58
2022/05/16 02:40:39;;;;;;;7.83;2.72;;;;;;;6.70;100.00;99652.53;1727369;81;21070;-58
2022/05/16 02:43:06;;;;;;;6.22;3.10;;;;;;;6.70;100.00;99656.59;1729626;83;21103;-58
2022/05/16 02:45:34;;;;;;;8.58;3.40;;;;;;;6.65;100.00;99655.19;1729960;81;21086;-59
2022/05/16 02:48:02;;;;;;;10.70;2.98;;;;;;;6.62;100.00;99665.68;1706285;83;21019;-59
2022/05/16 02:50:30;;;;;;;6.00;2.80;;;;;;;6.62;100.00;99670.56;1725823;81;21031;-60
2022/05/16 02:52:57;;;;;;;11.03;2.47;;;;;;;6.70;100.00;99669.30;1731530;81;21031;-59
2022/05/16 02:55:23;;;;;;;5.45;2.62;;;;;;;6.65;100.00;99653.83;1727524;81;21126;-59
2022/05/16 02:57:50;;;;;;;4.90;2.20;;;;;;;6.77;100.00;99672.64;1728535;82;20975;-59
2022/05/16 03:00:17;;;;;;;7.45;2.72;;;;;;;6.79;100.00;99676.77;1730107;81;21098;-59
2022/05/16 03:02:44;;;;;;;4.78;2.22;;;;;;;6.81;100.00;99675.14;1726151;83;21007;-59
2022/05/16 03:05:11;;;;;;;6.15;2.20;;;;;;;6.88;100.00;99679.31;1728978;81;21649;-59
2022/05/16 03:07:37;;;;;;;6.40;2.75;;;;;;;7.03;100.00;99682.78;1728319;82;21054;-59
2022/05/16 03:10:04;;;;;;;;;;;;;;;7.16;100.00;99682.41;1732195;81;21106;-59
2022/05/16 03:12:31;;;;;;;7.78;2.50;;;;;;;7.23;100.00;99678.97;1723551;81;20430;-60
2022/05/16 03:14:58;;;;;;;7.58;3.00;;;;;;;7.23;100.00;99683.56;1726060;81;21042;-59
2022/05/16 03:17:25;;;;;;;11.68;5.92;;;;;;;7.25;100.00;99682.27;1729636;82;20965;-59
2022/05/16 03:19:51;;;;;;;11.75;5.78;;;;;;;7.34;100.00;99678.56;1720228;81;21612;-60
2022/05/16 03:22:21;;;;;;;11.53;5.00;;;;;;;7.47;100.00;99681.71;1728005;82;21086;-59
2022/05/16 03:24:47;;;;;;;10.18;4.15;;;;;;;7.59;100.00;99678.88;1726121;81;21015;-59
2022/05/16 03:27:14;;;;;;;8.53;3.80;;;;;;;7.66;100.00;99676.79;1733855;81;21123;-60
2022/05/16 03:29:41;;;;;;;;;;;;;;;7.73;100.00;99679.30;1729770;81;21608;-59
2022/05/16 03:32:08;;;;;;;7.42;2.30;;;;;;;7.84;100.00;99670.20;1727508;81;20314;-59
2022/05/16 03:34:35;;;;;;;5.65;2.10;;;;;;;7.98;100.00;99676.86;1728620;81;21102;-58
2022/05/16 03:37:03;;;;;;;5.62;1.85;;;;;;;8.17;100.00;99673.24;1728952;81;21078;-59
2022/05/16 03:42:15;;;;;;;7.22;2.05;;;;;;;8.83;100.00;99674.06;1727885;82;21090;-59
2022/05/16 03:44:42;;;;;;;3.90;1.92;;;;;;;9.37;100.00;99672.45;1723366;81;21041;-60
2022/05/16 03:47:08;;;;;;;4.65;2.05;;;;;;;9.90;100.00;99669.91;1728769;81;21063;-59
2022/05/16 03:49:35;;;;;;;6.20;1.65;;;;;;;10.44;100.00;99662.11;1725692;81;21050;-59
2022/05/16 03:52:04;;;;;;;5.22;1.80;;;;;;;11.05;100.00;99663.39;1730124;81;21039;-60
2022/05/16 03:54:31;;;;;;;3.77;1.60;;;;;;;11.72;100.00;99656.06;1732182;81;21151;-59
2022/05/16 03:56:57;;;;;;;6.97;1.70;;;;;;;12.27;100.00;99648.05;1728139;81;21124;-59
2022/05/16 03:59:24;;;;;;;5.30;1.70;;;;;;;12.77;100.00;99640.78;1729392;82;21053;-59
2022/05/16 04:01:52;;;;;;;4.58;1.37;;;;;;;13.30;100.00;99639.41;1729961;81;21121;-60
2022/05/16 04:04:19;;;;;;;3.17;1.30;;;;;;;13.78;100.00;99635.48;1730712;81;21013;-60
2022/05/16 04:06:46;;;;;;;4.58;1.55;;;;;;;14.26;100.00;99635.33;1727967;81;21055;-59
2022/05/16 04:09:13;;;;;;;4.47;1.55;;;;;;;14.63;100.00;99624.30;1726886;81;21102;-59
2022/05/16 04:11:39;;;;;;;4.92;1.42;;;;;;;14.85;100.00;99626.38;1729456;81;21079;-59
2022/05/16 04:14:07;;;;;;;2.22;1.07;;;;;;;15.18;100.00;99640.84;1729568;82;21894;-59
2022/05/16 04:16:33;;;;;;;7.08;1.32;;;;;;;15.48;100.00;99638.05;1730389;81;21522;-60
2022/05/16 04:19:00;;;;;;;4.40;1.15;;;;;;;15.84;100.00;99630.13;1729771;81;21541;-59
2022/05/16 04:21:26;;;;;;;4.80;1.20;;;;;;;16.08;100.00;99628.50;1732477;81;21072;-59
2022/05/16 04:23:52;;;;;;;;;;;;;;;16.30;100.00;99631.80;1731051;82;21581;-59
2022/05/16 04:26:19;;;;;;;4.05;1.40;;;;;;;16.51;100.00;99633.52;1725870;81;20143;-59
2022/05/16 04:28:46;;;;;;;5.95;1.57;;;;;;;16.53;100.00;99635.37;1729171;82;21055;-59
2022/05/16 04:31:12;;;;;;;;;;;;;;;16.62;100.00;99640.38;1740682;81;21070;-59
2022/05/16 04:33:39;;;;;;;3.12;0.90;;;;;;;16.84;100.00;99632.92;1730100;81;20115;-59
2022/05/16 04:36:06;;;;;;;4.30;1.30;;;;;;;17.01;100.00;99634.13;1729964;80;21514;-60
2022/05/16 04:38:33;;;;;;;4.22;1.07;;;;;;;17.29;100.00;99631.41;1708956;82;21013;-59
2022/05/16 04:43:45;;;;;;;5.75;1.10;;;;;;;17.72;100.00;99631.00;1733302;82;21098;-60
2022/05/16 04:46:12;;;;;;;4.58;1.30;;;;;;;17.97;100.00;99629.97;1726028;82;21110;-59
2022/05/16 04:48:39;;;;;;;5.42;1.22;;;;;;;18.09;100.00;99630.16;1722907;82;21076;-60
2022/05/16 04:51:05;;;;;;;5.30;1.40;;;;;;;18.17;100.00;99630.73;1720851;82;21126;-58
2022/05/16 04:53:33;;;;;;;5.20;1.25;;;;;;;18.35;100.00;99626.23;1721389;82;21019;-59
2022/05/16 04:56:00;;;;;;;4.90;1.40;;;;;;;18.42;100.00;99620.27;1719135;82;21078;-58
2022/05/16 04:58:26;;;;;;;2.25;0.90;;;;;;;18.32;100.00;99624.14;1684030;84;21502;-59
2022/05/16 05:00:53;;;;;;;3.83;1.12;;;;;;;18.49;100.00;99616.44;1686050;84;21076;-59
2022/05/16 05:03:19;;;;;;;3.02;1.15;;;;;;;18.64;100.00;99617.88;1669725;84;21425;-59
2022/05/16 05:05:46;;;;;;;2.98;1.25;;;;;;;18.60;100.00;99616.94;1684059;84;21208;-59
2022/05/16 05:08:12;;;;;;;4.47;1.07;;;;;;;18.53;100.00;99617.41;1656204;85;21035;-60
2022/05/16 05:16:15;;;;;;;4.70;1.85;;;;;;;18.27;100.00;99618.81;1671672;85;21064;-59
2022/05/16 05:18:41;;;;;;;1.72;0.90;;;;;;;18.37;100.00;99613.53;1668452;84;20959;-60
2022/05/16 05:21:09;;;;;;;4.30;1.17;;;;;;;18.46;100.00;99619.04;1672105;85;21078;-58
2022/05/16 05:23:37;;;;;;;4.58;1.47;;;;;;;18.22;100.00;99614.83;1724114;82;21501;-58
2022/05/16 05:26:04;;;;;;;4.30;1.25;;;;;;;18.14;100.00;99615.63;1722127;82;21607;-59
2022/05/16 05:28:31;;;;;;;11.45;1.30;;;;;;;18.37;100.00;99619.85;1724413;82;20976;-59
2022/05/16 05:30:57;;;;;;;3.42;1.00;;;;;;;18.75;100.00;99614.45;1724781;81;21523;-61
2022/05/16 05:33:24;;;;;;;3.37;0.90;;;;;;;19.05;100.00;99608.44;1695749;82;21471;-60
2022/05/16 05:35:50;;;;;;;4.70;1.30;;;;;;;19.31;100.00;99613.25;1721861;82;21040;-56
2022/05/16 05:38:18;;;;;;;2.58;0.93;;;;;;;19.17;94.89;99614.05;1702537;83;21299;-59
2022/05/16 05:40:46;;;;;;;3.40;1.00;;;;;;;19.07;96.34;99617.75;1722667;82;21086;-58
2022/05/16 05:43:12;;;;;;;2.95;0.72;;;;;;;19.05;91.99;99615.34;1718115;82;20978;-59
2022/05/16 05:45:38;;;;;;;2.70;0.98;;;;;;;19.15;91.80;99621.05;1713681;82;21027;-58
2022/05/16 05:48:06;;;;;;;2.92;0.70;;;;;;;19.16;93.74;99616.59;1719887;82;20943;-58
2022/05/16 05:50:32;;;;;;;3.98;0.80;;;;;;;19.41;94.71;99616.27;1720583;82;21597;-59
2022/05/16 05:52:59;;;;;;;2.75;0.80;;;;;;;19.64;90.62;99608.48;1727966;82;21003;-59
2022/05/16 05:55:25;;;;;;;3.20;0.65;;;;;;;19.92;99.61;99610.97;1721680;81;21075;-58
2022/05/16 05:57:53;;;;;;;2.58;0.75;;;;;;;19.93;82.62;99598.78;1720410;83;21019;-59
2022/05/16 06:00:20;;;;;;;2.05;0.60;;;;;;;19.94;82.96;99605.93;1721842;82;21122;-59
2022/05/16 06:02:46;;;;;;;4.58;0.68;;;;;;;20.21;75.46;99605.94;1699973;83;21073;-59
2022/05/16 06:05:17;;;;;;;2.22;0.68;;;;;;;20.39;73.81;99612.16;1689844;83;21141;-59
2022/05/16 06:07:44;;;;;;;3.27;0.72;;;;;;;20.42;66.63;99608.70;1682699;83;21009;-58
2022/05/16 06:10:11;;;;;;;3.52;0.53;;;;;;;20.18;63.86;99615.72;1712251;83;21054;-58
2022/05/16 06:12:39;;;;;;;3.20;0.80;;;;;;;19.89;67.54;99604.73;1703378;83;21541;-58
2022/05/16 06:15:08;;;;;;;8.80;0.95;;;;;;;19.70;76.20;99612.09;1687724;83;21034;-58
2022/05/16 06:17:37;;;;;;;2.80;0.60;;;;;;;19.65;77.39;99610.92;1688406;85;20988;-60
2022/05/16 06:20:05;;;;;;;3.87;0.72;;;;;;;19.61;73.23;99607.77;1732491;82;20997;-59
2022/05/16 06:22:37;;;;;;;4.33;0.80;;;;;;;19.62;82.27;99604.69;1726686;81;21484;-59
2022/05/16 06:27:53;;;;;;;3.65;1.00;;;;;;;19.89;79.93;99613.02;1715827;82;20959;-59
2022/05/16 06:30:20;;;;;;;3.25;0.80;;;;;;;19.96;84.24;99606.39;1705203;82;21042;-59
2022/05/16 06:32:47;;;;;;;2.02;0.90;;;;;;;20.16;82.83;99605.56;1718633;81;20967;-60
2022/05/16 06:35:13;;;;;;;2.20;0.98;;;;;;;20.30;80.82;99608.88;1721470;81;21023;-60
2022/05/16 06:37:40;;;;;;;2.58;0.78;;;;;;;20.47;78.93;99609.89;1717221;81;20944;-60
2022/05/16 06:40:08;;;;;;;2.33;0.80;;;;;;;20.66;80.77;99601.86;1716559;81;21026;-60
2022/05/16 06:42:36;;;;;;;3.87;0.70;;;;;;;20.78;86.06;99606.05;1722952;81;21042;-57
2022/05/16 06:45:05;;;;;;;2.33;0.70;;;;;;;20.88;74.23;99613.91;1724428;81;21540;-58
2022/05/16 06:47:32;;;;;;;4.05;0.70;;;;;;;20.91;68.36;99599.39;1723599;81;20995;-58
2022/05/16 06:51:12;;;;;;;2.95;0.53;;;;;;;20.84;71.09;99600.53;1784249;78;23449;-59
2022/05/16 06:53:38;;;;;;;3.30;0.65;;;;;;;20.66;72.27;99612.92;1748164;80;21001;-60
2022/05/16 06:56:05;;;;;;;3.77;0.78;;;;;;;21.02;73.38;99593.64;1755569;81;21082;-59
2022/05/16 06:58:32;;;;;;;2.37;0.60;;;;;;;21.25;71.27;99600.97;1748230;80;21030;-59
2022/05/16 07:00:58;;;;;;;2.20;0.88;;;;;;;21.25;71.27;99600.97;1748789;80;21090;-59
2022/05/16 07:03:25;;;;;;;3.02;0.70;;;;;;;21.39;70.71;99597.85;1756760;80;20991;-59
2022/05/16 07:05:52;;;;;;;4.47;0.70;;;;;;;21.49;64.29;99600.96;1753076;80;21121;-59
2022/05/16 07:08:20;;;;;;;2.40;0.70;;;;;;;21.56;64.14;99596.22;1748939;80;21015;-60
2022/05/16 07:10:48;;;;;;;2.85;0.70;;;;;;;21.56;63.42;99596.22;1753274;81;21050;-59
2022/05/16 07:13:16;;;;;;;2.08;0.82;;;;;;;21.45;61.88;99591.73;1745726;81;21002;-58
2022/05/16 07:15:43;;;;;;;3.05;0.88;;;;;;;21.38;64.05;99592.08;1743807;81;21642;-59
2022/05/16 07:18:10;;;;;;;4.45;0.65;;;;;;;21.45;67.90;99590.92;1745967;80;21056;-60
2022/05/16 07:20:38;;;;;;;7.50;0.70;;;;;;;21.58;62.68;99587.78;1746883;81;21086;-58
2022/05/16 07:23:05;;;;;;;3.95;0.70;;;;;;;21.61;57.00;99581.55;1746968;80;21557;-59
2022/05/16 07:27:56;;;;;;;3.62;0.80;;;;;;;21.54;54.52;99591.02;1757523;80;21117;-59
2022/05/16 07:28:00;;;;;;;2.52;0.70;;;;;;;21.40;53.69;99585.03;1727599;81;21031;-59
2022/05/16 07:30:35;;;;;;;4.50;0.40;;;;;;;21.38;51.65;99589.30;1730808;81;21972;-59
2022/05/16 07:33:03;;;;;;;2.62;0.70;;;;;;;21.51;50.23;99590.91;1682628;84;20995;-59
2022/05/16 07:35:31;;;;;;;3.37;0.60;;;;;;;21.31;44.21;99596.23;1699924;84;21114;-59
2022/05/16 07:37:58;;;;;;;2.08;0.75;;;;;;;20.75;47.13;99598.45;1696787;83;21030;-60
2022/05/16 07:40:27;;;;;;;2.90;0.80;;;;;;;20.64;51.54;99595.88;1696922;83;21059;-59
2022/05/16 07:42:54;;;;;;;3.72;0.65;;;;;;;20.82;51.48;99606.99;1723705;81;21067;-59
2022/05/16 07:45:21;;;;;;;3.20;0.72;;;;;;;20.99;45.58;99606.79;1719214;83;21784;-59
2022/05/16 07:47:49;;;;;;;2.30;0.60;;;;;;;20.52;45.30;99602.74;1696301;84;21035;-59
2022/05/16 07:50:16;;;;;;;2.08;0.72;;;;;;;20.07;46.61;99597.12;1674848;83;21138;-58
2022/05/16 07:52:48;;;;;;;5.87;1.02;;;;;;;19.74;48.69;99595.09;1736013;82;21027;-59
2022/05/16 07:55:20;;;;;;;2.85;0.80;;;;;;;19.47;49.58;99608.02;1735787;81;21145;-59
2022/05/16 07:57:47;;;;;;;2.20;0.70;;;;;;;19.34;49.66;99598.78;1737978;81;21043;-58
2022/05/16 08:00:15;;;;;;;3.45;0.80;;;;;;;19.52;55.46;99598.75;1743807;80;21126;-58
2022/05/16 08:02:41;;;;;;;3.55;0.60;;;;;;;19.90;52.64;99602.22;1749029;81;21654;-58
2022/05/16 08:05:10;;;;;;;3.05;0.85;;;;;;;19.95;47.37;99597.86;1739974;82;21086;-58
2022/05/16 08:10:29;;;;;;;1.32;0.50;;;;;;;19.75;47.39;99605.00;1743595;80;21019;-59
2022/05/16 08:13:04;;;;;;;3.83;1.05;;;;;;;19.51;47.07;99600.70;1642576;86;21027;-58
2022/05/16 08:15:31;;;;;;;4.40;1.20;;;;;;;19.43;48.19;99599.35;1637282;86;21118;-58
2022/05/16 08:17:58;;;;;;;5.15;1.05;;;;;;;19.38;49.75;99609.41;1645060;86;21577;-58
2022/05/16 08:20:25;;;;;;;3.52;0.80;;;;;;;19.21;49.82;99594.88;1607050;88;21056;-58
2022/05/16 08:22:52;;;;;;;4.12;0.60;;;;;;;19.00;50.11;99599.52;1605482;88;21603;-58
2022/05/16 08:25:19;;;;;;;3.87;0.60;;;;;;;19.12;51.66;99604.60;1556919;90;21144;-60
2022/05/16 08:27:45;;;;;;;2.72;0.40;;;;;;;19.27;49.11;99601.86;1583019;89;21070;-60
2022/05/16 08:30:12;;;;;;;2.17;0.60;;;;;;;19.33;51.05;99603.28;1592665;88;21047;-60
2022/05/16 08:32:38;;;;;;;4.05;0.70;;;;;;;19.55;49.46;99609.12;1610809;88;21057;-60
2022/05/16 08:35:07;;;;;;;2.77;0.60;;;;;;;19.55;47.45;99614.08;1564532;90;21787;-59
2022/05/16 08:40:19;;;;;;;3.75;0.80;;;;;;;19.02;46.37;99604.97;1603348;88;21088;-59
2022/05/16 08:42:54;;;;;;;1.07;0.40;;;;;;;18.62;46.45;99614.66;1583725;89;21005;-59
2022/05/16 08:45:34;;;;;;;2.33;0.50;;;;;;;18.42;48.11;99610.61;1583991;89;21115;-59
2022/05/16 08:48:26;;;;;;;4.45;0.72;;;;;;;18.39;50.13;99607.92;1609003;88;21007;-58
2022/05/16 08:51:03;;;;;;;0.95;0.42;;;;;;;18.54;48.48;99609.95;1578535;89;22219;-59
2022/05/16 08:53:57;;;;;;;5.03;0.80;;;;;;;18.40;47.05;99615.62;1592726;88;21027;-57
2022/05/16 08:56:28;;;;;;;3.22;0.50;;;;;;;18.28;47.41;99614.90;1591258;87;21679;-57
2022/05/16 08:59:00;;;;;;;1.72;0.50;;;;;;;18.21;51.04;99611.04;1593443;88;21082;-59
2022/05/16 09:01:37;;;;;;;2.45;0.70;;;;;;;18.33;54.61;99609.80;1599135;88;21156;-60
2022/05/16 09:04:14;;;;;;;2.55;0.50;;;;;;;18.81;54.96;99605.45;1577852;88;21515;-60
2022/05/16 09:07:02;;;;;;;1.92;0.78;;;;;;;19.24;45.75;99612.97;1593501;88;21202;-59
2022/05/16 09:09:44;;;;;;;3.45;1.30;;;;;;;19.41;45.42;99610.74;1590060;89;21133;-59
2022/05/16 09:12:32;;;;;;;2.83;0.75;;;;;;;19.67;44.29;99602.28;1621024;86;21098;-59
2022/05/16 09:15:14;;;;;;;3.33;0.70;;;;;;;19.61;43.54;99608.59;1581420;89;21650;-59
2022/05/16 09:18:04;;;;;;;4.28;0.53;;;;;;;19.26;42.80;99609.32;1659289;84;21127;-58
2022/05/16 09:20:58;;;;;;;2.60;0.57;;;;;;;18.83;42.61;99597.08;1668133;84;21147;-61
2022/05/16 09:23:42;;;;;;;5.37;0.68;;;;;;;18.46;48.10;99600.53;1665584;84;21523;-60
2022/05/16 09:26:23;;;;;;;4.00;0.70;;;;;;;18.70;49.32;99595.91;1628982;86;21071;-59
2022/05/16 09:29:00;;;;;;;5.45;0.55;;;;;;;19.02;45.13;99595.31;1664269;84;21066;-59
2022/05/16 09:31:31;;;;;;;1.60;0.40;;;;;;;19.29;44.86;99592.09;1667452;84;21607;-59
2022/05/16 09:33:59;;;;;;;2.65;0.45;;;;;;;19.47;44.43;99596.16;1665101;84;21015;-59
2022/05/16 09:36:35;;;;;;;3.85;0.90;;;;;;;19.66;46.11;99586.28;1659820;84;21073;-59
2022/05/16 09:39:03;;;;;;;2.10;0.50;;;;;;;19.79;44.49;99589.37;1663198;85;20993;-59
2022/05/16 09:42:02;;;;;;;2.90;0.60;;;;;;;19.65;42.03;99591.59;1667851;84;21064;-58
2022/05/16 09:44:43;;;;;;;2.80;0.33;;;;;;;19.44;43.15;99596.84;1624460;87;21557;-58
2022/05/16 09:47:37;;;;;;;3.10;0.40;;;;;;;19.49;45.82;99588.34;1672690;84;21148;-58
2022/05/16 09:50:21;;;;;;;1.55;0.50;;;;;;;19.73;42.52;99587.94;1670358;84;21019;-57
2022/05/16 09:52:53;;;;;;;2.70;0.40;;;;;;;19.63;39.81;99580.05;1669872;84;21080;-59
2022/05/16 09:55:50;;;;;;;1.95;0.60;;;;;;;19.50;40.73;99587.21;1661641;84;21632;-58
2022/05/16 09:58:25;;;;;;;4.70;0.40;;;;;;;19.55;45.42;99586.47;1665952;84;21098;-59
2022/05/16 10:01:06;;;;;;;2.47;0.60;;;;;;;19.77;41.65;99575.65;1614798;86;21161;-59
2022/05/16 10:03:47;;;;;;;3.27;0.60;;;;;;;19.76;40.77;99583.16;1671205;84;20993;-58
2022/05/16 10:06:36;;;;;;;2.87;0.45;;;;;;;19.67;40.59;99584.33;1666543;85;21567;-59
2022/05/16 10:09:08;;;;;;;1.92;0.57;;;;;;;19.49;42.74;99580.88;1677360;84;20973;-58
2022/05/16 10:11:37;;;;;;;8.33;0.75;;;;;;;19.45;42.36;99577.16;1679859;84;21115;-58
2022/05/16 10:14:04;;;;;;;2.02;0.72;;;;;;;19.17;42.03;99558.05;1671512;84;21500;-59
2022/05/16 10:16:31;;;;;;;2.90;0.53;;;;;;;19.12;39.82;99566.54;1646889;85;21533;-59
2022/05/16 10:19:04;;;;;;;1.70;0.40;;;;;;;18.97;42.28;99572.61;1686236;85;21008;-59
2022/05/16 10:21:39;;;;;;;3.67;0.35;;;;;;;19.04;39.54;99564.63;1662653;85;21084;-60
2022/05/16 10:24:09;;;;;;;2.00;0.40;;;;;;;19.09;39.65;99557.55;1673474;84;21552;-58
2022/05/16 10:26:39;;;;;;;1.62;0.40;;;;;;;18.94;39.77;99567.19;1685264;84;21575;-59
2022/05/16 10:29:13;;;;;;;2.10;0.50;;;;;;;18.79;40.04;99560.27;1664097;85;21019;-59
2022/05/16 10:34:40;;;;;;;3.95;0.50;;;;;;;18.39;41.79;99560.26;1629663;86;21104;-59
2022/05/16 10:37:07;;;;;;;1.57;0.37;;;;;;;18.08;40.91;99559.66;1637208;86;21581;-58
2022/05/16 10:39:33;;;;;;;1.35;0.40;;;;;;;18.05;44.13;99561.13;1645010;86;21280;-58
2022/05/16 10:42:05;;;;;;;3.40;0.30;;;;;;;18.22;42.88;99551.46;1661029;85;21036;-58
2022/05/16 10:45:00;;;;;;;2.35;0.30;;;;;;;18.37;42.92;99554.28;1666600;85;21473;-59
2022/05/16 10:47:30;;;;;;;2.98;0.40;;;;;;;18.44;42.25;99551.02;1664233;85;20996;-59
2022/05/16 10:50:21;;;;;;;5.97;0.50;;;;;;;18.56;42.95;99549.25;1664768;85;21032;-59
2022/05/16 10:52:56;;;;;;;1.62;0.50;;;;;;;18.74;43.36;99545.86;1645474;85;21078;-59
2022/05/16 10:55:22;;;;;;;1.20;0.50;;;;;;;19.00;42.99;99551.25;1664393;85;21128;-58
2022/05/16 10:58:05;;;;;;;3.72;0.57;;;;;;;19.16;42.45;99548.19;1607237;87;21053;-58
2022/05/16 11:01:02;;;;;;;6.47;0.70;;;;;;;19.19;41.13;99545.56;1667813;84;21157;-57
2022/05/16 11:04:17;;;;;;;2.73;0.40;;;;;;;19.14;41.46;99544.36;1667373;85;21068;-59
2022/05/16 11:07:22;;;;;;;3.90;0.50;;;;;;;19.02;40.76;99541.52;1672403;85;21143;-58
2022/05/16 11:10:03;;;;;;;3.33;0.80;;;;;;;18.79;41.02;99545.09;1661999;85;21020;-59
2022/05/16 11:13:17;;;;;;;2.27;0.60;;;;;;;18.55;42.98;99550.38;1668373;85;21088;-56
2022/05/16 11:16:08;;;;;;;5.00;0.72;;;;;;;18.35;42.49;99546.33;1638857;85;21116;-57
2022/05/16 11:18:56;;;;;;;2.30;0.50;;;;;;;18.13;42.76;99542.98;1666035;85;21091;-56
2022/05/16 11:21:49;;;;;;;3.15;0.60;;;;;;;18.09;43.89;99555.78;1654337;85;21119;-56
2022/05/16 11:24:56;;;;;;;2.00;0.50;;;;;;;18.19;42.94;99552.13;1669260;85;21511;-56
2022/05/16 11:31:04;;;;;;;2.47;0.50;;;;;;;18.59;46.10;99547.20;1682788;83;21099;-57
2022/05/16 11:33:53;;;;;;;3.52;0.40;;;;;;;18.72;43.01;99539.28;1667005;84;21023;-56
2022/05/16 11:36:28;;;;;;;3.80;0.50;;;;;;;18.69;41.78;99543.27;1670751;84;21492;-57
2022/05/16 11:39:17;;;;;;;1.98;0.53;;;;;;;18.55;42.82;99537.16;1677952;84;21057;-57
2022/05/16 11:41:58;;;;;;;3.87;0.50;;;;;;;18.47;42.31;99536.02;1679957;84;21086;-55
2022/05/16 11:44:35;;;;;;;1.67;0.40;;;;;;;18.38;43.30;99538.80;1683120;85;21006;-56
2022/05/16 11:47:31;;;;;;;2.15;0.50;;;;;;;18.43;43.60;99543.31;1679928;84;21109;-55
2022/05/16 11:50:27;;;;;;;4.58;0.60;;;;;;;18.48;44.02;99530.75;1680143;84;21636;-57
2022/05/16 11:53:41;;;;;;;2.92;0.47;;;;;;;18.74;47.63;99523.80;1678517;84;20979;-57
2022/05/16 12:01:40;;;;;;;1.95;0.40;;;;;;;18.70;41.03;99520.09;1662997;84;21129;-56
2022/05/16 12:04:23;;;;;;;2.45;0.50;;;;;;;18.53;40.46;99518.77;1700549;84;21039;-55
2022/05/16 12:06:54;;;;;;;4.30;0.60;;;;;;;18.45;41.72;99520.95;1702140;82;21083;-56
2022/05/16 12:09:28;;;;;;;2.35;0.50;;;;;;;18.40;41.59;99519.98;1682403;84;21557;-56
2022/05/16 12:12:10;;;;;;;3.22;0.60;;;;;;;18.42;42.64;99514.72;1677520;84;21057;-56
2022/05/16 12:14:40;;;;;;;3.92;0.65;;;;;;;18.46;42.26;99515.09;1677029;84;21010;-56
2022/05/16 12:17:21;;;;;;;4.35;0.60;;;;;;;18.46;43.90;99514.30;1681725;84;21050;-55
2022/05/16 12:19:52;;;;;;;1.65;0.53;;;;;;;18.53;42.81;99515.42;1683158;85;21030;-56
2022/05/16 12:22:38;;;;;;;2.00;0.42;;;;;;;18.49;42.13;99524.67;1679239;84;21535;-56
2022/05/16 12:25:13;;;;;;;4.67;0.70;;;;;;;18.40;42.93;99521.36;1682191;84;21069;-57
2022/05/16 12:27:43;;;;;;;2.27;0.60;;;;;;;18.28;41.88;99519.84;1683036;84;20980;-56
2022/05/16 12:30:14;;;;;;;2.20;0.45;;;;;;;18.31;44.67;99508.19;1665414;84;21635;-56
2022/05/16 12:32:52;;;;;;;2.10;0.40;;;;;;;18.50;43.52;99496.76;1687760;83;21074;-56